Bethel, Delaware
Current Conditions -  °F | °C
As of 7:54 PM on Wednesday 22 Oct 2014 (Local Time) from KGED Reporting Station
Moderate Rain Moderate Rain  
Wind Chill: 54°   Ceiling: 1000
Heat Index: 54°   Visibility: 5mi
Dew Point: 51°   Wind: 13mph
Humidity: 90%   Direction: 340°NNW
Pressure: 29.82"   Gusts: 20mph
Location:  38.57°N, 75.62°W
Report Text: KGED 222354Z AUTO 34011G17KT 5SM RA BR BKN010 BKN014 OVC024 12/11 A2982 RMK AO2 CIG 006V013 SLP097 P0001 60002 T01220106 10150 20122 51008
Loading
Personal Weather Stations






























Interactive Weather Map
Tropical Storm Tracking
New forecast layout! Learn more

10-Day Weather Forecast

Advertisements
Track Severe Weather on mobile